sensor_id;sensor_type;location;lat;lon;timestamp;P1;durP1;ratioP1;P2;durP2;ratioP2
3733;SDS011;1882;52.256;8.874;2023-02-01T00:01:32;24.17;;;3.50;;
3733;SDS011;1882;52.256;8.874;2023-02-01T00:03:59;15.77;;;4.20;;
3733;SDS011;1882;52.256;8.874;2023-02-01T00:06:25;21.40;;;3.60;;
3733;SDS011;1882;52.256;8.874;2023-02-01T00:08:53;18.40;;;3.90;;
3733;SDS011;1882;52.256;8.874;2023-02-01T00:11:21;18.80;;;4.00;;
3733;SDS011;1882;52.256;8.874;2023-02-01T00:13:48;34.60;;;5.00;;
3733;SDS011;1882;52.256;8.874;2023-02-01T00:16:16;15.80;;;3.50;;
3733;SDS011;1882;52.256;8.874;2023-02-01T00:18:45;12.03;;;3.47;;
3733;SDS011;1882;52.256;8.874;2023-02-01T00:21:15;17.80;;;3.47;;
3733;SDS011;1882;52.256;8.874;2023-02-01T00:23:43;16.30;;;3.80;;
3733;SDS011;1882;52.256;8.874;2023-02-01T00:26:12;18.90;;;3.40;;
3733;SDS011;1882;52.256;8.874;2023-02-01T00:28:41;17.57;;;4.30;;
3733;SDS011;1882;52.256;8.874;2023-02-01T00:31:11;24.60;;;3.83;;
3733;SDS011;1882;52.256;8.874;2023-02-01T00:33:38;18.77;;;3.33;;
3733;SDS011;1882;52.256;8.874;2023-02-01T00:36:06;14.63;;;3.50;;
3733;SDS011;1882;52.256;8.874;2023-02-01T00:38:34;23.63;;;4.00;;
3733;SDS011;1882;52.256;8.874;2023-02-01T00:41:06;21.03;;;3.60;;
3733;SDS011;1882;52.256;8.874;2023-02-01T00:43:35;19.73;;;3.63;;
3733;SDS011;1882;52.256;8.874;2023-02-01T00:46:02;23.27;;;3.80;;
3733;SDS011;1882;52.256;8.874;2023-02-01T00:48:29;21.47;;;3.67;;
3733;SDS011;1882;52.256;8.874;2023-02-01T00:51:01;20.50;;;3.77;;
3733;SDS011;1882;52.256;8.874;2023-02-01T00:53:29;17.73;;;4.10;;
3733;SDS011;1882;52.256;8.874;2023-02-01T00:55:56;21.27;;;3.70;;
3733;SDS011;1882;52.256;8.874;2023-02-01T00:58:25;24.27;;;4.00;;
3733;SDS011;1882;52.256;8.874;2023-02-01T01:01:06;14.10;;;4.13;;
3733;SDS011;1882;52.256;8.874;2023-02-01T01:03:36;20.37;;;4.27;;
3733;SDS011;1882;52.256;8.874;2023-02-01T01:06:10;15.30;;;3.30;;
3733;SDS011;1882;52.256;8.874;2023-02-01T01:08:38;12.43;;;3.43;;
3733;SDS011;1882;52.256;8.874;2023-02-01T01:11:09;16.60;;;4.40;;
3733;SDS011;1882;52.256;8.874;2023-02-01T01:13:37;15.33;;;3.10;;
3733;SDS011;1882;52.256;8.874;2023-02-01T01:16:05;24.07;;;4.53;;
3733;SDS011;1882;52.256;8.874;2023-02-01T01:18:33;21.77;;;4.77;;
3733;SDS011;1882;52.256;8.874;2023-02-01T01:21:08;16.53;;;3.83;;
3733;SDS011;1882;52.256;8.874;2023-02-01T01:23:35;25.37;;;4.20;;
3733;SDS011;1882;52.256;8.874;2023-02-01T01:26:06;18.30;;;3.90;;
3733;SDS011;1882;52.256;8.874;2023-02-01T01:28:36;19.77;;;3.33;;
3733;SDS011;1882;52.256;8.874;2023-02-01T01:31:09;19.20;;;4.03;;
3733;SDS011;1882;52.256;8.874;2023-02-01T01:33:44;19.73;;;3.80;;
3733;SDS011;1882;52.256;8.874;2023-02-01T01:36:11;20.13;;;3.67;;
3733;SDS011;1882;52.256;8.874;2023-02-01T01:38:41;20.53;;;3.90;;
3733;SDS011;1882;52.256;8.874;2023-02-01T01:41:08;22.83;;;4.50;;
3733;SDS011;1882;52.256;8.874;2023-02-01T01:43:59;21.17;;;3.27;;
3733;SDS011;1882;52.256;8.874;2023-02-01T01:46:37;15.03;;;3.30;;
3733;SDS011;1882;52.256;8.874;2023-02-01T01:49:14;21.37;;;3.77;;
3733;SDS011;1882;52.256;8.874;2023-02-01T01:51:53;14.27;;;3.80;;
3733;SDS011;1882;52.256;8.874;2023-02-01T01:54:43;22.73;;;3.63;;
3733;SDS011;1882;52.256;8.874;2023-02-01T01:57:12;26.40;;;3.80;;
3733;SDS011;1882;52.256;8.874;2023-02-01T02:00:08;19.77;;;3.50;;
3733;SDS011;1882;52.256;8.874;2023-02-01T02:02:44;14.10;;;2.87;;
3733;SDS011;1882;52.256;8.874;2023-02-01T02:05:15;15.30;;;3.33;;
3733;SDS011;1882;52.256;8.874;2023-02-01T02:07:46;23.87;;;3.70;;
3733;SDS011;1882;52.256;8.874;2023-02-01T02:10:17;18.73;;;3.30;;
3733;SDS011;1882;52.256;8.874;2023-02-01T02:12:47;22.37;;;3.50;;
3733;SDS011;1882;52.256;8.874;2023-02-01T02:15:14;15.77;;;3.47;;
3733;SDS011;1882;52.256;8.874;2023-02-01T02:24:07;19.70;;;3.43;;
3733;SDS011;1882;52.256;8.874;2023-02-01T02:36:27;10.70;;;3.00;;
3733;SDS011;1882;52.256;8.874;2023-02-01T02:48:25;16.13;;;3.50;;
3733;SDS011;1882;52.256;8.874;2023-02-01T02:51:38;20.73;;;3.40;;
3733;SDS011;1882;52.256;8.874;2023-02-01T02:54:32;15.20;;;3.23;;
3733;SDS011;1882;52.256;8.874;2023-02-01T02:57:20;15.00;;;3.43;;
3733;SDS011;1882;52.256;8.874;2023-02-01T03:00:16;17.87;;;4.00;;
3733;SDS011;1882;52.256;8.874;2023-02-01T03:03:03;15.07;;;3.50;;
3733;SDS011;1882;52.256;8.874;2023-02-01T03:05:49;17.10;;;4.17;;
3733;SDS011;1882;52.256;8.874;2023-02-01T03:08:21;21.13;;;4.00;;
3733;SDS011;1882;52.256;8.874;2023-02-01T03:11:08;16.77;;;3.60;;
3733;SDS011;1882;52.256;8.874;2023-02-01T03:13:42;21.63;;;4.50;;
3733;SDS011;1882;52.256;8.874;2023-02-01T03:21:19;14.57;;;3.57;;
3733;SDS011;1882;52.256;8.874;2023-02-01T03:24:00;16.87;;;3.90;;
3733;SDS011;1882;52.256;8.874;2023-02-01T03:26:30;33.57;;;4.87;;
3733;SDS011;1882;52.256;8.874;2023-02-01T03:29:00;12.13;;;3.90;;
3733;SDS011;1882;52.256;8.874;2023-02-01T03:31:32;12.90;;;3.43;;
3733;SDS011;1882;52.256;8.874;2023-02-01T03:34:05;12.30;;;3.83;;
3733;SDS011;1882;52.256;8.874;2023-02-01T03:36:40;22.33;;;4.23;;
3733;SDS011;1882;52.256;8.874;2023-02-01T03:39:12;13.33;;;3.93;;
3733;SDS011;1882;52.256;8.874;2023-02-01T03:41:45;16.37;;;3.93;;
3733;SDS011;1882;52.256;8.874;2023-02-01T03:44:26;14.47;;;3.97;;
3733;SDS011;1882;52.256;8.874;2023-02-01T03:49:54;16.50;;;4.33;;
3733;SDS011;1882;52.256;8.874;2023-02-01T03:52:31;12.43;;;3.50;;
3733;SDS011;1882;52.256;8.874;2023-02-01T03:55:02;19.13;;;4.77;;
3733;SDS011;1882;52.256;8.874;2023-02-01T03:57:31;12.23;;;3.30;;
3733;SDS011;1882;52.256;8.874;2023-02-01T04:00:15;16.43;;;4.10;;
3733;SDS011;1882;52.256;8.874;2023-02-01T04:02:50;11.67;;;3.57;;
3733;SDS011;1882;52.256;8.874;2023-02-01T04:05:17;20.93;;;4.10;;
3733;SDS011;1882;52.256;8.874;2023-02-01T04:07:53;13.97;;;4.03;;
3733;SDS011;1882;52.256;8.874;2023-02-01T04:10:20;18.40;;;4.30;;
3733;SDS011;1882;52.256;8.874;2023-02-01T04:12:47;16.40;;;4.10;;
3733;SDS011;1882;52.256;8.874;2023-02-01T04:15:16;23.87;;;4.70;;
3733;SDS011;1882;52.256;8.874;2023-02-01T04:17:46;15.43;;;3.43;;
3733;SDS011;1882;52.256;8.874;2023-02-01T04:20:16;15.80;;;3.17;;
3733;SDS011;1882;52.256;8.874;2023-02-01T04:22:43;17.00;;;4.20;;
3733;SDS011;1882;52.256;8.874;2023-02-01T04:25:10;16.23;;;3.87;;
3733;SDS011;1882;52.256;8.874;2023-02-01T04:27:45;22.57;;;5.00;;
3733;SDS011;1882;52.256;8.874;2023-02-01T04:30:12;23.27;;;4.23;;
3733;SDS011;1882;52.256;8.874;2023-02-01T04:32:39;18.77;;;4.03;;
3733;SDS011;1882;52.256;8.874;2023-02-01T04:35:11;21.87;;;4.10;;
3733;SDS011;1882;52.256;8.874;2023-02-01T04:37:38;12.60;;;3.60;;
3733;SDS011;1882;52.256;8.874;2023-02-01T04:40:05;24.13;;;4.07;;
3733;SDS011;1882;52.256;8.874;2023-02-01T04:42:32;15.50;;;4.53;;
3733;SDS011;1882;52.256;8.874;2023-02-01T04:44:59;16.60;;;3.63;;
3733;SDS011;1882;52.256;8.874;2023-02-01T04:47:25;18.63;;;4.20;;
3733;SDS011;1882;52.256;8.874;2023-02-01T04:49:52;19.00;;;3.47;;
3733;SDS011;1882;52.256;8.874;2023-02-01T04:52:19;15.50;;;3.87;;
3733;SDS011;1882;52.256;8.874;2023-02-01T04:54:45;13.70;;;3.60;;
3733;SDS011;1882;52.256;8.874;2023-02-01T04:57:12;19.13;;;4.87;;
3733;SDS011;1882;52.256;8.874;2023-02-01T04:59:39;18.53;;;3.70;;
3733;SDS011;1882;52.256;8.874;2023-02-01T05:02:16;21.43;;;3.87;;
3733;SDS011;1882;52.256;8.874;2023-02-01T05:04:43;20.90;;;4.40;;
3733;SDS011;1882;52.256;8.874;2023-02-01T05:07:10;18.53;;;3.50;;
3733;SDS011;1882;52.256;8.874;2023-02-01T05:09:44;22.33;;;4.57;;
3733;SDS011;1882;52.256;8.874;2023-02-01T05:12:10;13.47;;;3.30;;
3733;SDS011;1882;52.256;8.874;2023-02-01T05:14:55;16.90;;;4.30;;
3733;SDS011;1882;52.256;8.874;2023-02-01T05:17:22;17.33;;;2.97;;
3733;SDS011;1882;52.256;8.874;2023-02-01T05:19:49;14.13;;;4.00;;
3733;SDS011;1882;52.256;8.874;2023-02-01T05:22:21;12.80;;;3.13;;
3733;SDS011;1882;52.256;8.874;2023-02-01T05:24:48;21.10;;;3.13;;
3733;SDS011;1882;52.256;8.874;2023-02-01T05:27:15;9.70;;;3.20;;
3733;SDS011;1882;52.256;8.874;2023-02-01T05:29:41;21.23;;;3.90;;
3733;SDS011;1882;52.256;8.874;2023-02-01T05:32:19;14.93;;;3.13;;
3733;SDS011;1882;52.256;8.874;2023-02-01T05:34:48;21.03;;;3.27;;
3733;SDS011;1882;52.256;8.874;2023-02-01T05:37:15;12.83;;;3.13;;
3733;SDS011;1882;52.256;8.874;2023-02-01T05:39:52;10.83;;;3.73;;
3733;SDS011;1882;52.256;8.874;2023-02-01T05:42:19;19.23;;;4.17;;
3733;SDS011;1882;52.256;8.874;2023-02-01T05:44:46;16.77;;;3.93;;
3733;SDS011;1882;52.256;8.874;2023-02-01T05:47:21;13.80;;;3.53;;
3733;SDS011;1882;52.256;8.874;2023-02-01T05:49:48;12.93;;;3.50;;
3733;SDS011;1882;52.256;8.874;2023-02-01T05:52:15;13.87;;;4.13;;
3733;SDS011;1882;52.256;8.874;2023-02-01T05:54:54;20.47;;;4.00;;
3733;SDS011;1882;52.256;8.874;2023-02-01T05:57:20;16.80;;;4.00;;
3733;SDS011;1882;52.256;8.874;2023-02-01T05:59:47;12.23;;;3.30;;
3733;SDS011;1882;52.256;8.874;2023-02-01T06:02:16;17.50;;;4.10;;
3733;SDS011;1882;52.256;8.874;2023-02-01T06:04:43;13.03;;;3.00;;
3733;SDS011;1882;52.256;8.874;2023-02-01T06:07:09;12.43;;;3.70;;
3733;SDS011;1882;52.256;8.874;2023-02-01T06:09:36;20.80;;;4.07;;
3733;SDS011;1882;52.256;8.874;2023-02-01T06:12:03;14.83;;;4.13;;
3733;SDS011;1882;52.256;8.874;2023-02-01T06:14:32;13.23;;;3.60;;
3733;SDS011;1882;52.256;8.874;2023-02-01T06:16:59;21.63;;;4.17;;
3733;SDS011;1882;52.256;8.874;2023-02-01T06:19:26;11.80;;;3.63;;
3733;SDS011;1882;52.256;8.874;2023-02-01T06:21:52;13.97;;;3.60;;
3733;SDS011;1882;52.256;8.874;2023-02-01T06:24:19;22.77;;;4.37;;
3733;SDS011;1882;52.256;8.874;2023-02-01T06:26:56;29.13;;;4.00;;
3733;SDS011;1882;52.256;8.874;2023-02-01T06:29:23;16.20;;;3.70;;
3733;SDS011;1882;52.256;8.874;2023-02-01T06:32:02;10.60;;;3.90;;
3733;SDS011;1882;52.256;8.874;2023-02-01T06:34:29;23.87;;;4.03;;
3733;SDS011;1882;52.256;8.874;2023-02-01T06:36:56;14.67;;;3.43;;
3733;SDS011;1882;52.256;8.874;2023-02-01T06:39:22;22.57;;;4.47;;
3733;SDS011;1882;52.256;8.874;2023-02-01T06:41:54;12.40;;;3.90;;
3733;SDS011;1882;52.256;8.874;2023-02-01T06:44:26;21.57;;;4.30;;
3733;SDS011;1882;52.256;8.874;2023-02-01T06:46:55;25.83;;;4.73;;
3733;SDS011;1882;52.256;8.874;2023-02-01T06:49:33;11.13;;;3.67;;
3733;SDS011;1882;52.256;8.874;2023-02-01T06:52:00;15.90;;;3.83;;
3733;SDS011;1882;52.256;8.874;2023-02-01T06:54:35;18.20;;;4.10;;
3733;SDS011;1882;52.256;8.874;2023-02-01T06:57:03;16.53;;;4.40;;
3733;SDS011;1882;52.256;8.874;2023-02-01T06:59:30;12.00;;;3.70;;
3733;SDS011;1882;52.256;8.874;2023-02-01T07:01:57;12.87;;;3.37;;
3733;SDS011;1882;52.256;8.874;2023-02-01T07:04:29;16.10;;;3.80;;
3733;SDS011;1882;52.256;8.874;2023-02-01T07:06:56;12.83;;;3.33;;
3733;SDS011;1882;52.256;8.874;2023-02-01T07:09:23;19.30;;;3.33;;
3733;SDS011;1882;52.256;8.874;2023-02-01T07:11:55;18.60;;;4.30;;
3733;SDS011;1882;52.256;8.874;2023-02-01T07:14:25;12.83;;;4.27;;
3733;SDS011;1882;52.256;8.874;2023-02-01T07:16:54;14.67;;;3.63;;
3733;SDS011;1882;52.256;8.874;2023-02-01T07:19:23;12.60;;;3.43;;
3733;SDS011;1882;52.256;8.874;2023-02-01T07:22:02;17.47;;;3.60;;
3733;SDS011;1882;52.256;8.874;2023-02-01T07:24:28;19.37;;;4.47;;
3733;SDS011;1882;52.256;8.874;2023-02-01T07:27:04;12.33;;;3.40;;
3733;SDS011;1882;52.256;8.874;2023-02-01T07:29:30;24.00;;;4.70;;
3733;SDS011;1882;52.256;8.874;2023-02-01T07:31:57;18.67;;;3.80;;
3733;SDS011;1882;52.256;8.874;2023-02-01T07:34:24;19.13;;;3.33;;
3733;SDS011;1882;52.256;8.874;2023-02-01T07:36:56;19.70;;;4.23;;
3733;SDS011;1882;52.256;8.874;2023-02-01T07:39:23;20.70;;;4.20;;
3733;SDS011;1882;52.256;8.874;2023-02-01T07:41:50;17.50;;;3.80;;
3733;SDS011;1882;52.256;8.874;2023-02-01T07:44:28;15.23;;;4.10;;
3733;SDS011;1882;52.256;8.874;2023-02-01T07:47:00;17.90;;;3.73;;
3733;SDS011;1882;52.256;8.874;2023-02-01T07:49:27;14.83;;;4.10;;
3733;SDS011;1882;52.256;8.874;2023-02-01T07:52:04;12.90;;;3.40;;
3733;SDS011;1882;52.256;8.874;2023-02-01T07:54:31;16.07;;;3.40;;
3733;SDS011;1882;52.256;8.874;2023-02-01T07:56:57;11.10;;;3.23;;
3733;SDS011;1882;52.256;8.874;2023-02-01T07:59:31;19.40;;;3.90;;
3733;SDS011;1882;52.256;8.874;2023-02-01T08:02:43;12.07;;;3.30;;
3733;SDS011;1882;52.256;8.874;2023-02-01T08:05:19;14.23;;;4.03;;
3733;SDS011;1882;52.256;8.874;2023-02-01T08:08:41;13.90;;;3.27;;
3733;SDS011;1882;52.256;8.874;2023-02-01T08:11:20;17.73;;;3.73;;
3733;SDS011;1882;52.256;8.874;2023-02-01T08:17:19;13.47;;;3.50;;
3733;SDS011;1882;52.256;8.874;2023-02-01T08:20:28;12.57;;;3.27;;
3733;SDS011;1882;52.256;8.874;2023-02-01T08:23:15;12.20;;;3.23;;
3733;SDS011;1882;52.256;8.874;2023-02-01T08:28:56;15.97;;;3.80;;
3733;SDS011;1882;52.256;8.874;2023-02-01T08:31:28;14.30;;;3.60;;
3733;SDS011;1882;52.256;8.874;2023-02-01T08:34:11;9.43;;;3.70;;
3733;SDS011;1882;52.256;8.874;2023-02-01T08:36:55;12.53;;;2.90;;
3733;SDS011;1882;52.256;8.874;2023-02-01T08:39:31;12.53;;;3.13;;
3733;SDS011;1882;52.256;8.874;2023-02-01T08:43:25;14.40;;;3.30;;
3733;SDS011;1882;52.256;8.874;2023-02-01T08:48:50;16.03;;;3.90;;
3733;SDS011;1882;52.256;8.874;2023-02-01T08:51:32;19.43;;;4.13;;
3733;SDS011;1882;52.256;8.874;2023-02-01T08:53:59;11.37;;;3.63;;
3733;SDS011;1882;52.256;8.874;2023-02-01T08:56:57;17.30;;;3.63;;
3733;SDS011;1882;52.256;8.874;2023-02-01T08:59:27;14.83;;;3.80;;
3733;SDS011;1882;52.256;8.874;2023-02-01T09:05:57;16.10;;;3.87;;
3733;SDS011;1882;52.256;8.874;2023-02-01T09:09:28;20.30;;;4.07;;
3733;SDS011;1882;52.256;8.874;2023-02-01T09:18:43;13.03;;;4.17;;
3733;SDS011;1882;52.256;8.874;2023-02-01T09:21:33;14.20;;;3.90;;
3733;SDS011;1882;52.256;8.874;2023-02-01T09:23:59;14.73;;;3.70;;
3733;SDS011;1882;52.256;8.874;2023-02-01T09:26:29;15.13;;;3.97;;
3733;SDS011;1882;52.256;8.874;2023-02-01T09:32:28;13.77;;;3.70;;
3733;SDS011;1882;52.256;8.874;2023-02-01T09:34:55;18.73;;;4.47;;
3733;SDS011;1882;52.256;8.874;2023-02-01T09:37:22;20.43;;;3.67;;
3733;SDS011;1882;52.256;8.874;2023-02-01T09:39:48;12.70;;;3.53;;
3733;SDS011;1882;52.256;8.874;2023-02-01T09:48:08;15.40;;;3.10;;
3733;SDS011;1882;52.256;8.874;2023-02-01T09:50:39;12.10;;;2.97;;
3733;SDS011;1882;52.256;8.874;2023-02-01T09:55:47;10.37;;;3.37;;
3733;SDS011;1882;52.256;8.874;2023-02-01T09:58:20;13.87;;;3.20;;
3733;SDS011;1882;52.256;8.874;2023-02-01T10:08:52;12.67;;;3.20;;
3733;SDS011;1882;52.256;8.874;2023-02-01T10:31:13;16.33;;;3.17;;
3733;SDS011;1882;52.256;8.874;2023-02-01T10:33:59;10.37;;;3.27;;
3733;SDS011;1882;52.256;8.874;2023-02-01T10:37:44;15.30;;;3.40;;
3733;SDS011;1882;52.256;8.874;2023-02-01T10:40:19;14.03;;;3.37;;
3733;SDS011;1882;52.256;8.874;2023-02-01T10:43:35;17.90;;;3.87;;
3733;SDS011;1882;52.256;8.874;2023-02-01T10:49:39;14.23;;;3.40;;
3733;SDS011;1882;52.256;8.874;2023-02-01T11:00:44;17.20;;;3.30;;
3733;SDS011;1882;52.256;8.874;2023-02-01T11:06:10;19.70;;;3.47;;
3733;SDS011;1882;52.256;8.874;2023-02-01T11:08:45;20.23;;;3.73;;
3733;SDS011;1882;52.256;8.874;2023-02-01T11:11:15;7.67;;;3.17;;
3733;SDS011;1882;52.256;8.874;2023-02-01T11:13:45;13.43;;;3.23;;
3733;SDS011;1882;52.256;8.874;2023-02-01T11:16:19;11.83;;;3.50;;
3733;SDS011;1882;52.256;8.874;2023-02-01T11:18:46;10.33;;;3.10;;
3733;SDS011;1882;52.256;8.874;2023-02-01T11:21:29;11.90;;;3.00;;
3733;SDS011;1882;52.256;8.874;2023-02-01T11:24:00;13.37;;;3.73;;
3733;SDS011;1882;52.256;8.874;2023-02-01T11:26:31;17.73;;;3.90;;
3733;SDS011;1882;52.256;8.874;2023-02-01T11:29:02;15.83;;;3.60;;
3733;SDS011;1882;52.256;8.874;2023-02-01T11:31:32;11.83;;;3.47;;
3733;SDS011;1882;52.256;8.874;2023-02-01T11:34:06;9.80;;;3.00;;
3733;SDS011;1882;52.256;8.874;2023-02-01T11:36:47;18.80;;;3.70;;
3733;SDS011;1882;52.256;8.874;2023-02-01T11:47:27;13.50;;;3.20;;
3733;SDS011;1882;52.256;8.874;2023-02-01T11:49:59;21.83;;;3.67;;
3733;SDS011;1882;52.256;8.874;2023-02-01T12:09:56;6.10;;;2.30;;
3733;SDS011;1882;52.256;8.874;2023-02-01T12:30:52;9.63;;;3.40;;
3733;SDS011;1882;52.256;8.874;2023-02-01T12:42:09;13.60;;;2.47;;
3733;SDS011;1882;52.256;8.874;2023-02-01T12:45:01;13.90;;;3.13;;
3733;SDS011;1882;52.256;8.874;2023-02-01T12:51:46;8.33;;;3.00;;
3733;SDS011;1882;52.256;8.874;2023-02-01T12:58:53;8.47;;;2.30;;
3733;SDS011;1882;52.256;8.874;2023-02-01T13:01:26;13.37;;;3.53;;
3733;SDS011;1882;52.256;8.874;2023-02-01T13:06:47;11.57;;;3.37;;
3733;SDS011;1882;52.256;8.874;2023-02-01T13:09:29;7.90;;;3.10;;
3733;SDS011;1882;52.256;8.874;2023-02-01T13:12:04;10.03;;;3.10;;
3733;SDS011;1882;52.256;8.874;2023-02-01T13:14:46;7.70;;;3.03;;
3733;SDS011;1882;52.256;8.874;2023-02-01T13:17:22;7.50;;;3.30;;
3733;SDS011;1882;52.256;8.874;2023-02-01T13:19:59;9.63;;;3.40;;
3733;SDS011;1882;52.256;8.874;2023-02-01T13:22:34;14.27;;;3.80;;
3733;SDS011;1882;52.256;8.874;2023-02-01T13:25:37;10.27;;;3.33;;
3733;SDS011;1882;52.256;8.874;2023-02-01T13:31:46;11.33;;;4.03;;
3733;SDS011;1882;52.256;8.874;2023-02-01T13:45:34;9.60;;;3.40;;
3733;SDS011;1882;52.256;8.874;2023-02-01T13:48:55;6.30;;;3.03;;
3733;SDS011;1882;52.256;8.874;2023-02-01T13:55:34;7.07;;;2.40;;
3733;SDS011;1882;52.256;8.874;2023-02-01T13:58:43;4.77;;;2.10;;
3733;SDS011;1882;52.256;8.874;2023-02-01T14:03:51;7.23;;;2.00;;
3733;SDS011;1882;52.256;8.874;2023-02-01T14:13:03;0.80;;;0.70;;
3733;SDS011;1882;52.256;8.874;2023-02-01T14:15:35;0.70;;;0.70;;
3733;SDS011;1882;52.256;8.874;2023-02-01T14:21:34;1.70;;;0.70;;
3733;SDS011;1882;52.256;8.874;2023-02-01T14:28:27;1.07;;;0.97;;
3733;SDS011;1882;52.256;8.874;2023-02-01T14:31:14;4.27;;;1.40;;
3733;SDS011;1882;52.256;8.874;2023-02-01T14:40:04;1.40;;;1.30;;
3733;SDS011;1882;52.256;8.874;2023-02-01T14:54:08;3.40;;;1.60;;
3733;SDS011;1882;52.256;8.874;2023-02-01T15:00:07;7.17;;;2.20;;
3733;SDS011;1882;52.256;8.874;2023-02-01T15:30:31;13.17;;;3.80;;
3733;SDS011;1882;52.256;8.874;2023-02-01T15:36:10;9.03;;;2.73;;
3733;SDS011;1882;52.256;8.874;2023-02-01T15:38:45;6.63;;;2.57;;
3733;SDS011;1882;52.256;8.874;2023-02-01T15:43:43;6.80;;;1.50;;
3733;SDS011;1882;52.256;8.874;2023-02-01T15:46:15;8.23;;;2.10;;
3733;SDS011;1882;52.256;8.874;2023-02-01T15:48:45;5.20;;;1.40;;
3733;SDS011;1882;52.256;8.874;2023-02-01T15:51:14;3.17;;;1.90;;
3733;SDS011;1882;52.256;8.874;2023-02-01T15:53:55;5.03;;;1.73;;
3733;SDS011;1882;52.256;8.874;2023-02-01T15:56:37;7.60;;;2.23;;
3733;SDS011;1882;52.256;8.874;2023-02-01T15:59:17;4.90;;;1.70;;
3733;SDS011;1882;52.256;8.874;2023-02-01T16:01:44;6.40;;;2.23;;
3733;SDS011;1882;52.256;8.874;2023-02-01T16:04:25;4.03;;;2.10;;
3733;SDS011;1882;52.256;8.874;2023-02-01T16:06:58;13.83;;;2.30;;
3733;SDS011;1882;52.256;8.874;2023-02-01T16:12:20;14.77;;;2.80;;
3733;SDS011;1882;52.256;8.874;2023-02-01T16:15:00;10.30;;;2.50;;
3733;SDS011;1882;52.256;8.874;2023-02-01T16:17:27;9.80;;;2.80;;
3733;SDS011;1882;52.256;8.874;2023-02-01T16:19:54;10.47;;;3.10;;
3733;SDS011;1882;52.256;8.874;2023-02-01T16:22:20;14.93;;;3.93;;
3733;SDS011;1882;52.256;8.874;2023-02-01T16:24:47;10.30;;;3.27;;
3733;SDS011;1882;52.256;8.874;2023-02-01T16:27:14;12.70;;;3.47;;
3733;SDS011;1882;52.256;8.874;2023-02-01T16:29:40;15.20;;;3.60;;
3733;SDS011;1882;52.256;8.874;2023-02-01T16:32:13;12.17;;;3.10;;
3733;SDS011;1882;52.256;8.874;2023-02-01T16:34:45;10.90;;;3.43;;
3733;SDS011;1882;52.256;8.874;2023-02-01T16:37:13;17.13;;;3.97;;
3733;SDS011;1882;52.256;8.874;2023-02-01T16:39:43;11.40;;;3.13;;
3733;SDS011;1882;52.256;8.874;2023-02-01T16:42:13;18.70;;;3.60;;
3733;SDS011;1882;52.256;8.874;2023-02-01T16:44:43;15.40;;;2.70;;
3733;SDS011;1882;52.256;8.874;2023-02-01T16:47:16;12.20;;;3.40;;
3733;SDS011;1882;52.256;8.874;2023-02-01T16:49:47;17.13;;;3.47;;
3733;SDS011;1882;52.256;8.874;2023-02-01T16:52:17;14.60;;;3.73;;
3733;SDS011;1882;52.256;8.874;2023-02-01T16:54:46;18.23;;;3.93;;
3733;SDS011;1882;52.256;8.874;2023-02-01T16:57:13;16.03;;;3.33;;
3733;SDS011;1882;52.256;8.874;2023-02-01T16:59:41;18.20;;;3.77;;
3733;SDS011;1882;52.256;8.874;2023-02-01T17:02:14;16.97;;;3.10;;
3733;SDS011;1882;52.256;8.874;2023-02-01T17:04:42;11.43;;;4.07;;
3733;SDS011;1882;52.256;8.874;2023-02-01T17:07:18;12.00;;;3.87;;
3733;SDS011;1882;52.256;8.874;2023-02-01T17:09:45;11.90;;;3.07;;
3733;SDS011;1882;52.256;8.874;2023-02-01T17:12:23;16.00;;;3.30;;
3733;SDS011;1882;52.256;8.874;2023-02-01T17:14:51;12.40;;;3.10;;
3733;SDS011;1882;52.256;8.874;2023-02-01T17:17:18;15.30;;;2.77;;
3733;SDS011;1882;52.256;8.874;2023-02-01T17:20:02;9.90;;;3.30;;
3733;SDS011;1882;52.256;8.874;2023-02-01T17:22:32;17.77;;;4.70;;
3733;SDS011;1882;52.256;8.874;2023-02-01T17:25:01;16.07;;;3.73;;
3733;SDS011;1882;52.256;8.874;2023-02-01T17:27:28;17.33;;;3.60;;
3733;SDS011;1882;52.256;8.874;2023-02-01T17:29:55;12.40;;;2.97;;
3733;SDS011;1882;52.256;8.874;2023-02-01T17:32:23;13.53;;;2.80;;
3733;SDS011;1882;52.256;8.874;2023-02-01T17:34:51;12.63;;;3.33;;
3733;SDS011;1882;52.256;8.874;2023-02-01T17:37:25;9.63;;;2.43;;
3733;SDS011;1882;52.256;8.874;2023-02-01T17:43:08;19.40;;;4.20;;
3733;SDS011;1882;52.256;8.874;2023-02-01T17:45:39;15.73;;;3.60;;
3733;SDS011;1882;52.256;8.874;2023-02-01T17:48:20;16.17;;;4.30;;
3733;SDS011;1882;52.256;8.874;2023-02-01T17:50:48;22.70;;;4.97;;
3733;SDS011;1882;52.256;8.874;2023-02-01T17:53:20;12.23;;;3.37;;
3733;SDS011;1882;52.256;8.874;2023-02-01T17:55:50;14.03;;;3.50;;
3733;SDS011;1882;52.256;8.874;2023-02-01T17:58:16;24.03;;;3.60;;
3733;SDS011;1882;52.256;8.874;2023-02-01T18:00:44;19.13;;;3.73;;
3733;SDS011;1882;52.256;8.874;2023-02-01T18:03:26;11.80;;;2.40;;
3733;SDS011;1882;52.256;8.874;2023-02-01T18:06:11;19.53;;;4.00;;
3733;SDS011;1882;52.256;8.874;2023-02-01T18:09:05;15.57;;;3.20;;
3733;SDS011;1882;52.256;8.874;2023-02-01T18:11:32;8.60;;;2.90;;
3733;SDS011;1882;52.256;8.874;2023-02-01T18:13:59;11.30;;;2.60;;
3733;SDS011;1882;52.256;8.874;2023-02-01T18:16:26;11.07;;;2.60;;
3733;SDS011;1882;52.256;8.874;2023-02-01T18:19:03;13.73;;;3.80;;
3733;SDS011;1882;52.256;8.874;2023-02-01T18:21:35;12.80;;;2.77;;
3733;SDS011;1882;52.256;8.874;2023-02-01T18:24:14;14.80;;;3.20;;
3733;SDS011;1882;52.256;8.874;2023-02-01T18:26:41;11.80;;;3.10;;
3733;SDS011;1882;52.256;8.874;2023-02-01T18:29:43;7.97;;;3.20;;
3733;SDS011;1882;52.256;8.874;2023-02-01T18:32:09;12.17;;;3.03;;
3733;SDS011;1882;52.256;8.874;2023-02-01T18:34:38;17.27;;;3.17;;
3733;SDS011;1882;52.256;8.874;2023-02-01T18:37:06;11.33;;;3.30;;
3733;SDS011;1882;52.256;8.874;2023-02-01T18:39:32;13.07;;;3.20;;
3733;SDS011;1882;52.256;8.874;2023-02-01T18:41:59;18.23;;;3.17;;
3733;SDS011;1882;52.256;8.874;2023-02-01T18:44:26;12.93;;;2.30;;
3733;SDS011;1882;52.256;8.874;2023-02-01T18:47:02;16.83;;;2.70;;
3733;SDS011;1882;52.256;8.874;2023-02-01T18:49:29;12.87;;;3.20;;
3733;SDS011;1882;52.256;8.874;2023-02-01T18:51:55;11.47;;;3.90;;
3733;SDS011;1882;52.256;8.874;2023-02-01T18:54:35;17.87;;;3.27;;
3733;SDS011;1882;52.256;8.874;2023-02-01T18:57:16;8.63;;;3.20;;
3733;SDS011;1882;52.256;8.874;2023-02-01T18:59:43;14.37;;;3.23;;
3733;SDS011;1882;52.256;8.874;2023-02-01T19:02:10;13.10;;;3.40;;
3733;SDS011;1882;52.256;8.874;2023-02-01T19:04:44;26.47;;;3.70;;
3733;SDS011;1882;52.256;8.874;2023-02-01T19:07:11;21.03;;;3.00;;
3733;SDS011;1882;52.256;8.874;2023-02-01T19:09:38;14.20;;;3.77;;
3733;SDS011;1882;52.256;8.874;2023-02-01T19:12:05;12.57;;;3.63;;
3733;SDS011;1882;52.256;8.874;2023-02-01T19:14:31;12.43;;;3.03;;
3733;SDS011;1882;52.256;8.874;2023-02-01T19:17:05;12.17;;;3.10;;
3733;SDS011;1882;52.256;8.874;2023-02-01T19:19:32;14.63;;;3.07;;
3733;SDS011;1882;52.256;8.874;2023-02-01T19:21:59;12.63;;;3.23;;
3733;SDS011;1882;52.256;8.874;2023-02-01T19:24:28;17.87;;;3.33;;
3733;SDS011;1882;52.256;8.874;2023-02-01T19:26:57;14.57;;;2.57;;
3733;SDS011;1882;52.256;8.874;2023-02-01T19:29:27;22.43;;;3.50;;
3733;SDS011;1882;52.256;8.874;2023-02-01T19:31:57;14.40;;;3.10;;
3733;SDS011;1882;52.256;8.874;2023-02-01T19:34:32;14.00;;;2.67;;
3733;SDS011;1882;52.256;8.874;2023-02-01T19:36:59;15.40;;;3.63;;
3733;SDS011;1882;52.256;8.874;2023-02-01T19:39:28;13.47;;;3.30;;
3733;SDS011;1882;52.256;8.874;2023-02-01T19:41:58;8.60;;;2.47;;
3733;SDS011;1882;52.256;8.874;2023-02-01T19:44:27;16.57;;;3.03;;
3733;SDS011;1882;52.256;8.874;2023-02-01T19:46:54;11.87;;;3.00;;
3733;SDS011;1882;52.256;8.874;2023-02-01T19:49:26;12.80;;;2.87;;
3733;SDS011;1882;52.256;8.874;2023-02-01T19:52:03;13.10;;;2.83;;
3733;SDS011;1882;52.256;8.874;2023-02-01T19:54:30;12.13;;;2.63;;
3733;SDS011;1882;52.256;8.874;2023-02-01T19:57:00;17.20;;;2.57;;
3733;SDS011;1882;52.256;8.874;2023-02-01T19:59:27;8.30;;;2.63;;
3733;SDS011;1882;52.256;8.874;2023-02-01T20:01:57;15.83;;;3.63;;
3733;SDS011;1882;52.256;8.874;2023-02-01T20:04:26;18.60;;;3.37;;
3733;SDS011;1882;52.256;8.874;2023-02-01T20:06:59;11.30;;;2.90;;
3733;SDS011;1882;52.256;8.874;2023-02-01T20:09:27;8.87;;;2.70;;